Time;durP1;ratioP1;P1;durP2;ratioP2;P2;SDS_P1;SDS_P2;PMS_P1;PMS_P2;Temp;Humidity;BMP_temperature;BMP_pressure;BME280_temperature;BME280_humidity;BME280_pressure;Samples;Min_cycle;Max_cycle;Signal;HPM_P1;HPM_P2
2023/03/11 00:00:15;;;;;;;14.40;13.80;;;4.80;99.90;;;;;;5110950;27;20196;-48
2023/03/11 00:02:42;;;;;;;13.40;12.90;;;4.50;99.90;;;;;;5108880;27;20191;-50
2023/03/11 00:05:08;;;;;;;13.93;13.32;;;4.30;99.90;;;;;;5107619;27;20191;-46
2023/03/11 00:07:36;;;;;;;13.77;13.27;;;4.20;99.90;;;;;;5109334;27;20283;-43
2023/03/11 00:10:02;;;;;;;14.02;13.43;;;4.00;99.90;;;;;;5115721;27;20175;-47
2023/03/11 00:12:27;;;;;;;13.83;13.17;;;3.90;99.90;;;;;;5102088;27;20240;-47
2023/03/11 00:14:53;;;;;;;13.83;13.23;;;3.80;99.90;;;;;;5115079;27;20258;-46
2023/03/11 00:17:18;;;;;;;14.07;13.50;;;3.70;99.90;;;;;;5119158;27;20175;-43
2023/03/11 00:19:44;;;;;;;14.00;13.40;;;3.60;99.90;;;;;;5104036;27;20275;-42
2023/03/11 00:22:09;;;;;;;14.00;13.50;;;3.50;99.90;;;;;;5111838;27;20556;-45
2023/03/11 00:24:35;;;;;;;13.37;12.87;;;3.40;99.90;;;;;;5105326;27;20191;-48
2023/03/11 00:27:01;;;;;;;13.90;13.30;;;3.30;99.90;;;;;;5118291;27;20885;-45
2023/03/11 00:29:26;;;;;;;13.70;13.10;;;3.30;99.90;;;;;;5108123;27;20180;-46
2023/03/11 00:31:52;;;;;;;14.00;13.30;;;3.20;99.90;;;;;;5111427;27;20179;-45
2023/03/11 00:34:17;;;;;;;13.63;13.03;;;3.10;99.90;;;;;;5100102;28;20196;-43
2023/03/11 00:36:43;;;;;;;13.77;13.17;;;3.10;99.90;;;;;;5121096;27;20274;-44
2023/03/11 00:39:09;;;;;;;13.17;12.63;;;3.00;99.90;;;;;;5120626;27;20178;-47
2023/03/11 00:41:36;;;;;;;14.65;13.85;;;3.00;99.90;;;;;;5121038;27;21059;-45
2023/03/11 00:44:01;;;;;;;13.63;13.02;;;2.90;99.90;;;;;;5108803;28;20176;-47
2023/03/11 00:46:28;;;;;;;13.70;13.10;;;2.90;99.90;;;;;;5109345;28;20583;-42
2023/03/11 00:48:54;;;;;;;13.68;12.98;;;2.80;99.90;;;;;;5114358;28;20237;-43
2023/03/11 00:51:20;;;;;;;13.53;12.83;;;2.80;99.90;;;;;;5118918;27;21194;-44
2023/03/11 00:53:45;;;;;;;13.90;13.30;;;2.70;99.90;;;;;;5116262;27;20439;-47
2023/03/11 00:56:13;;;;;;;13.67;13.07;;;2.70;99.90;;;;;;5108680;27;20183;-43
2023/03/11 00:58:40;;;;;;;13.35;12.75;;;2.70;99.90;;;;;;5112531;27;20187;-46
2023/03/11 01:01:18;;;;;;;13.52;12.93;;;2.70;99.90;;;;;;5107252;27;20691;-45
2023/03/11 01:03:44;;;;;;;13.63;13.02;;;2.60;99.90;;;;;;5111350;27;20593;-48
2023/03/11 01:06:10;;;;;;;14.23;13.55;;;2.60;99.90;;;;;;5115419;27;20208;-45
2023/03/11 01:08:36;;;;;;;13.70;13.10;;;2.60;99.90;;;;;;5116875;27;20203;-43
2023/03/11 01:11:03;;;;;;;14.02;13.32;;;2.60;99.90;;;;;;5119174;27;20179;-46
2023/03/11 01:13:29;;;;;;;13.52;12.93;;;2.60;99.90;;;;;;5115677;27;20179;-45
2023/03/11 01:15:56;;;;;;;13.65;12.95;;;2.50;99.90;;;;;;5116235;27;20211;-44
2023/03/11 01:18:22;;;;;;;13.70;13.10;;;2.40;99.90;;;;;;5113411;27;20692;-45
2023/03/11 01:20:47;;;;;;;12.70;12.10;;;2.40;99.90;;;;;;5116364;27;20179;-44
2023/03/11 01:23:14;;;;;;;13.10;12.50;;;2.40;99.90;;;;;;5113914;27;20475;-46
2023/03/11 01:25:40;;;;;;;12.80;12.20;;;2.40;99.90;;;;;;5116359;27;20209;-48
2023/03/11 01:28:07;;;;;;;12.70;12.10;;;2.40;99.90;;;;;;5110437;27;20195;-43
2023/03/11 01:30:34;;;;;;;13.32;12.73;;;2.40;99.90;;;;;;5108253;27;20566;-44
2023/03/11 01:33:00;;;;;;;13.57;12.88;;;2.40;99.90;;;;;;5120382;27;20231;-46
2023/03/11 01:35:28;;;;;;;13.53;12.93;;;2.40;99.90;;;;;;5117527;27;20565;-46
2023/03/11 01:37:54;;;;;;;13.85;13.20;;;2.40;99.90;;;;;;5120932;27;20634;-43
2023/03/11 01:40:30;;;;;;;13.60;13.00;;;2.40;99.90;;;;;;5123225;27;20171;-43
2023/03/11 01:42:57;;;;;;;13.55;12.95;;;2.30;99.90;;;;;;5121877;27;20167;-48
2023/03/11 01:45:39;;;;;;;14.48;13.55;;;2.30;99.90;;;;;;5117971;27;20240;-46
2023/03/11 01:48:06;;;;;;;13.68;13.07;;;2.40;99.90;;;;;;5100639;27;20194;-47
2023/03/11 01:50:37;;;;;;;13.93;13.25;;;2.40;99.90;;;;;;5120077;27;20962;-46
2023/03/11 01:53:04;;;;;;;13.95;13.35;;;2.30;99.90;;;;;;5106611;27;20183;-48
2023/03/11 01:55:31;;;;;;;14.13;13.48;;;2.30;99.90;;;;;;5117852;27;20188;-47
2023/03/11 01:57:59;;;;;;;14.25;13.55;;;2.30;99.90;;;;;;5111001;27;20629;-43
2023/03/11 02:00:24;;;;;;;15.05;14.15;;;2.30;99.90;;;;;;5107609;27;20214;-46
2023/03/11 02:02:52;;;;;;;14.30;13.70;;;2.30;99.90;;;;;;5107141;27;20653;-47
2023/03/11 02:05:22;;;;;;;14.30;13.60;;;2.30;99.90;;;;;;5084206;27;20944;-48
2023/03/11 02:07:49;;;;;;;14.23;13.52;;;2.30;99.90;;;;;;5112402;27;20201;-50
2023/03/11 02:10:15;;;;;;;13.93;13.25;;;2.20;99.90;;;;;;5114744;27;20637;-44
2023/03/11 02:12:42;;;;;;;13.80;13.20;;;2.30;99.90;;;;;;5117105;27;20243;-45
2023/03/11 02:15:09;;;;;;;14.18;13.52;;;2.30;99.90;;;;;;5114610;27;20767;-44
2023/03/11 02:17:37;;;;;;;14.15;13.55;;;2.30;99.90;;;;;;5118475;27;20246;-48
2023/03/11 02:20:23;;;;;;;14.45;13.75;;;2.30;99.90;;;;;;5107081;27;20218;-49
2023/03/11 02:22:49;;;;;;;14.90;14.20;;;2.30;99.90;;;;;;5109494;27;20231;-50
2023/03/11 02:25:38;;;;;;;14.60;13.90;;;2.30;99.90;;;;;;5122081;27;20710;-46
2023/03/11 02:28:07;;;;;;;14.18;13.48;;;2.30;99.90;;;;;;5105571;27;20326;-47
2023/03/11 02:30:33;;;;;;;13.60;12.90;;;2.30;99.90;;;;;;5106524;27;20266;-45
2023/03/11 02:33:01;;;;;;;13.73;13.02;;;2.30;99.90;;;;;;5118204;27;20209;-45
2023/03/11 02:35:26;;;;;;;13.27;12.57;;;2.30;99.90;;;;;;5117118;27;20223;-47
2023/03/11 02:37:53;;;;;;;13.37;12.67;;;2.30;99.90;;;;;;5113976;27;20187;-50
2023/03/11 02:40:31;;;;;;;13.23;12.60;;;2.30;99.90;;;;;;5120533;27;20428;-48
2023/03/11 02:43:00;;;;;;;13.32;12.63;;;2.30;99.90;;;;;;5109499;27;20202;-46
2023/03/11 02:45:28;;;;;;;12.90;12.20;;;2.30;99.90;;;;;;5096116;27;20214;-47
2023/03/11 02:47:55;;;;;;;12.05;11.50;;;2.40;99.90;;;;;;5110341;27;20186;-46
2023/03/11 02:50:21;;;;;;;12.52;11.63;;;2.40;99.90;;;;;;5114996;27;20182;-44
2023/03/11 02:52:48;;;;;;;12.75;12.10;;;2.40;99.90;;;;;;5109604;27;20194;-45
2023/03/11 02:55:16;;;;;;;11.93;11.32;;;2.40;99.90;;;;;;5117969;27;20203;-48
2023/03/11 02:57:43;;;;;;;12.60;12.00;;;2.40;99.90;;;;;;5101633;27;20652;-47
2023/03/11 03:00:12;;;;;;;11.93;11.32;;;2.40;99.90;;;;;;5104833;27;20179;-46
2023/03/11 03:02:37;;;;;;;12.00;11.40;;;2.40;99.90;;;;;;5114205;27;20231;-45
2023/03/11 03:05:04;;;;;;;12.07;11.47;;;2.40;99.90;;;;;;5112255;27;20630;-46
2023/03/11 03:07:30;;;;;;;12.02;11.43;;;2.40;99.90;;;;;;5109417;27;20202;-46
2023/03/11 03:09:56;;;;;;;11.67;11.17;;;2.40;99.90;;;;;;5114368;27;20199;-48
2023/03/11 03:12:21;;;;;;;11.40;10.90;;;2.40;99.90;;;;;;5115297;27;21106;-48
2023/03/11 03:14:47;;;;;;;11.93;11.33;;;2.40;99.90;;;;;;5116367;27;20204;-48
2023/03/11 03:17:12;;;;;;;11.90;11.30;;;2.30;99.90;;;;;;5119155;27;20999;-47
2023/03/11 03:19:38;;;;;;;11.60;11.00;;;2.30;99.90;;;;;;5110791;27;20665;-49
2023/03/11 03:22:04;;;;;;;11.97;11.37;;;2.20;99.90;;;;;;5115539;27;20223;-47
2023/03/11 03:24:29;;;;;;;11.43;10.83;;;2.30;99.90;;;;;;5113729;27;20190;-49
2023/03/11 03:26:55;;;;;;;12.13;11.53;;;2.20;99.90;;;;;;5098731;27;20187;-46
2023/03/11 03:29:21;;;;;;;11.67;11.07;;;2.10;99.90;;;;;;5111349;27;20944;-45
2023/03/11 03:31:46;;;;;;;11.80;11.20;;;2.10;99.90;;;;;;5111621;27;20198;-45
2023/03/11 03:34:12;;;;;;;12.53;11.93;;;2.10;99.90;;;;;;5095851;27;20365;-46
2023/03/11 03:36:37;;;;;;;12.20;11.60;;;2.00;99.90;;;;;;5120292;27;20191;-47
2023/03/11 03:39:04;;;;;;;12.20;11.60;;;2.00;99.90;;;;;;5103118;27;20187;-46
2023/03/11 03:41:29;;;;;;;12.45;11.85;;;2.00;99.90;;;;;;5111441;27;20183;-46
2023/03/11 03:43:55;;;;;;;13.00;12.30;;;1.90;99.90;;;;;;5102711;27;20187;-46
2023/03/11 03:46:21;;;;;;;12.80;12.10;;;1.90;99.90;;;;;;5114669;27;20187;-46
2023/03/11 03:48:47;;;;;;;13.38;12.57;;;1.90;99.90;;;;;;5101396;27;20194;-49
2023/03/11 03:51:13;;;;;;;14.13;13.30;;;1.90;99.90;;;;;;5120674;27;20171;-44
2023/03/11 03:53:40;;;;;;;14.40;13.50;;;1.80;99.90;;;;;;5115079;27;20228;-44
2023/03/11 03:56:11;;;;;;;14.55;13.65;;;1.70;99.90;;;;;;5120884;27;20232;-45
2023/03/11 03:58:37;;;;;;;15.15;14.18;;;1.70;99.90;;;;;;5120485;27;20182;-45
2023/03/11 04:01:03;;;;;;;14.90;14.00;;;1.70;99.90;;;;;;5108649;27;20182;-44
2023/03/11 04:03:30;;;;;;;16.77;15.77;;;1.70;99.90;;;;;;5113930;27;20952;-45
2023/03/11 04:06:09;;;;;;;15.10;14.10;;;1.70;99.90;;;;;;5113140;27;20202;-45
2023/03/11 04:08:35;;;;;;;15.30;14.30;;;1.70;99.90;;;;;;5116872;27;20536;-45
2023/03/11 04:11:01;;;;;;;15.55;14.52;;;1.70;99.90;;;;;;5110797;27;20194;-44
2023/03/11 04:13:27;;;;;;;15.23;14.23;;;1.70;99.90;;;;;;5119863;27;20187;-45
2023/03/11 04:15:52;;;;;;;15.30;14.37;;;1.70;99.90;;;;;;5110450;27;20472;-47
2023/03/11 04:18:18;;;;;;;16.00;14.80;;;1.60;99.90;;;;;;5101022;27;20583;-45
2023/03/11 04:20:45;;;;;;;15.10;14.10;;;1.60;99.90;;;;;;5101584;27;20190;-45
2023/03/11 04:23:11;;;;;;;14.38;13.30;;;1.60;99.90;;;;;;5108040;27;20311;-44
2023/03/11 04:25:37;;;;;;;15.55;14.45;;;1.50;99.90;;;;;;5115210;27;20216;-44
2023/03/11 04:28:03;;;;;;;16.40;15.23;;;1.50;99.90;;;;;;5105629;27;20271;-50
2023/03/11 04:30:28;;;;;;;16.67;15.47;;;1.50;99.90;;;;;;5111487;27;20187;-47
2023/03/11 04:32:54;;;;;;;16.87;15.67;;;1.50;99.90;;;;;;5113797;27;20191;-46
2023/03/11 04:35:19;;;;;;;16.03;14.93;;;1.50;99.90;;;;;;5108096;27;20206;-44
2023/03/11 04:37:45;;;;;;;16.57;15.40;;;1.40;99.90;;;;;;5117181;27;20184;-46
2023/03/11 04:40:11;;;;;;;17.30;16.03;;;1.40;99.90;;;;;;5108602;27;20198;-44
2023/03/11 04:42:37;;;;;;;16.77;15.57;;;1.40;99.90;;;;;;5108150;28;20264;-44
2023/03/11 04:45:04;;;;;;;17.73;16.17;;;1.40;99.90;;;;;;5119578;28;20431;-45
2023/03/11 04:47:30;;;;;;;16.38;15.18;;;1.40;99.90;;;;;;5104497;28;20682;-43
2023/03/11 04:49:56;;;;;;;16.53;15.33;;;1.40;99.90;;;;;;5112594;28;20191;-44
2023/03/11 04:52:22;;;;;;;17.57;16.17;;;1.30;99.90;;;;;;5107110;28;20191;-43
2023/03/11 04:54:47;;;;;;;17.70;16.30;;;1.30;99.90;;;;;;5119685;28;20282;-47
2023/03/11 04:57:13;;;;;;;17.60;16.20;;;1.30;99.90;;;;;;5109149;28;20179;-44
2023/03/11 04:59:39;;;;;;;17.37;16.17;;;1.40;99.90;;;;;;5092913;28;20184;-42
2023/03/11 05:02:04;;;;;;;17.90;16.60;;;1.40;99.90;;;;;;5105881;28;20493;-43
2023/03/11 05:04:30;;;;;;;18.77;17.20;;;1.40;99.90;;;;;;5119372;28;21031;-42
2023/03/11 05:06:56;;;;;;;17.90;16.50;;;1.30;99.90;;;;;;5099307;28;20448;-43
2023/03/11 05:09:21;;;;;;;17.77;16.47;;;1.30;99.90;;;;;;5119170;28;20800;-43
2023/03/11 05:11:47;;;;;;;17.33;15.93;;;1.30;99.90;;;;;;5108112;28;20191;-44
2023/03/11 05:14:13;;;;;;;18.10;16.80;;;1.30;99.90;;;;;;5115441;28;20642;-44
2023/03/11 05:16:38;;;;;;;18.60;17.17;;;1.30;99.90;;;;;;5107818;28;20184;-46
2023/03/11 05:21:48;;;;;;;18.80;17.30;;;1.30;99.90;;;;;;5107496;28;20591;-44
2023/03/11 05:24:14;;;;;;;19.73;18.17;;;1.40;99.90;;;;;;5081543;28;20191;-48
2023/03/11 05:26:40;;;;;;;20.33;18.63;;;1.40;99.90;;;;;;5105574;28;20195;-46
2023/03/11 05:29:06;;;;;;;19.60;18.13;;;1.40;99.90;;;;;;5106204;28;20179;-44
2023/03/11 05:31:31;;;;;;;19.77;18.27;;;1.50;99.90;;;;;;5117914;28;20416;-46
2023/03/11 05:33:57;;;;;;;19.63;18.13;;;1.40;99.90;;;;;;5113408;28;20769;-42
2023/03/11 05:36:22;;;;;;;20.17;18.57;;;1.40;99.90;;;;;;5119141;28;20505;-44
2023/03/11 05:38:48;;;;;;;20.80;19.10;;;1.40;99.90;;;;;;5112100;27;20187;-45
2023/03/11 05:41:13;;;;;;;20.07;18.57;;;1.40;99.90;;;;;;5120289;27;20708;-44
2023/03/11 05:43:39;;;;;;;21.00;19.20;;;1.40;99.90;;;;;;5113128;27;20183;-43
2023/03/11 05:46:05;;;;;;;20.40;18.90;;;1.40;99.90;;;;;;5113470;27;20534;-46
2023/03/11 05:48:30;;;;;;;20.33;18.70;;;1.50;99.90;;;;;;5103777;27;20192;-43
2023/03/11 05:50:56;;;;;;;19.67;18.17;;;1.50;99.90;;;;;;5105094;27;20175;-47
2023/03/11 05:53:21;;;;;;;19.90;18.43;;;1.50;99.90;;;;;;5106220;27;20552;-44
2023/03/11 05:55:55;;;;;;;20.57;18.97;;;1.60;99.90;;;;;;5116107;27;20209;-46
2023/03/11 05:58:21;;;;;;;21.15;19.45;;;1.50;99.90;;;;;;5119031;27;20186;-44
2023/03/11 06:00:46;;;;;;;21.13;19.53;;;1.50;99.90;;;;;;5094629;27;20664;-46
2023/03/11 06:03:12;;;;;;;21.40;19.70;;;1.60;99.90;;;;;;5120531;27;20658;-42
2023/03/11 06:05:47;;;;;;;19.73;18.33;;;1.60;99.90;;;;;;5105937;27;20278;-43
2023/03/11 06:08:13;;;;;;;20.35;18.80;;;1.60;99.90;;;;;;5102404;27;20190;-44
2023/03/11 06:10:39;;;;;;;20.30;18.67;;;1.60;99.90;;;;;;5115594;27;20182;-44
2023/03/11 06:13:04;;;;;;;21.10;19.50;;;1.60;99.90;;;;;;5118290;27;20195;-43
2023/03/11 06:15:32;;;;;;;21.00;19.37;;;1.60;99.90;;;;;;5122276;27;21035;-44
2023/03/11 06:17:58;;;;;;;21.05;19.38;;;1.60;99.90;;;;;;5106266;27;20207;-46
2023/03/11 06:20:24;;;;;;;21.60;19.80;;;1.50;99.90;;;;;;5100920;27;20186;-48
2023/03/11 06:22:50;;;;;;;21.20;19.60;;;1.50;99.90;;;;;;5120821;27;20237;-45
2023/03/11 06:25:16;;;;;;;20.90;19.30;;;1.60;99.90;;;;;;5107459;27;20494;-46
2023/03/11 06:27:43;;;;;;;20.52;18.90;;;1.70;99.90;;;;;;5091021;28;20187;-46
2023/03/11 06:30:09;;;;;;;21.42;19.73;;;1.60;99.90;;;;;;5091067;27;20353;-49
2023/03/11 06:32:36;;;;;;;21.73;19.95;;;1.60;99.90;;;;;;5109357;27;20274;-44
2023/03/11 06:35:02;;;;;;;21.70;19.85;;;1.60;99.90;;;;;;5119080;27;21006;-45
2023/03/11 06:37:28;;;;;;;21.67;19.88;;;1.60;99.90;;;;;;5107551;27;20636;-48
2023/03/11 06:39:54;;;;;;;21.70;19.90;;;1.60;99.90;;;;;;5116543;27;20176;-44
2023/03/11 06:42:22;;;;;;;22.35;20.55;;;1.60;99.90;;;;;;5105561;27;20225;-46
2023/03/11 06:44:49;;;;;;;21.35;19.75;;;1.70;99.90;;;;;;5104248;27;20235;-44
2023/03/11 06:47:15;;;;;;;22.95;21.02;;;1.70;99.90;;;;;;5113051;27;20277;-45
2023/03/11 06:49:41;;;;;;;22.98;21.05;;;1.70;99.90;;;;;;5103183;27;20198;-46
2023/03/11 06:52:08;;;;;;;23.52;21.58;;;1.80;99.90;;;;;;5112945;27;20277;-46
2023/03/11 06:54:34;;;;;;;22.13;20.33;;;1.80;99.90;;;;;;5105485;27;20214;-44
2023/03/11 06:57:00;;;;;;;22.63;20.80;;;1.80;99.90;;;;;;5119476;27;20186;-45
2023/03/11 06:59:27;;;;;;;22.50;20.60;;;1.70;99.90;;;;;;5109971;27;20182;-46
2023/03/11 07:01:53;;;;;;;24.08;21.88;;;1.80;99.90;;;;;;5102168;27;20200;-50
2023/03/11 07:04:19;;;;;;;22.63;20.83;;;1.70;99.90;;;;;;5112759;27;20223;-47
2023/03/11 07:06:44;;;;;;;22.53;20.60;;;1.70;99.90;;;;;;5121492;27;20987;-46
2023/03/11 07:09:10;;;;;;;22.50;20.60;;;1.70;99.90;;;;;;5117054;27;20435;-42
2023/03/11 07:11:36;;;;;;;22.43;20.50;;;1.80;99.90;;;;;;5111088;27;20191;-49
2023/03/11 07:14:01;;;;;;;22.30;20.37;;;1.80;99.90;;;;;;5112105;27;20188;-48
2023/03/11 07:16:29;;;;;;;21.90;20.00;;;1.80;99.90;;;;;;5109391;27;20459;-45
2023/03/11 07:18:59;;;;;;;21.55;19.58;;;1.80;99.90;;;;;;5109472;27;20176;-51
2023/03/11 07:21:26;;;;;;;21.70;19.90;;;1.80;99.90;;;;;;5102025;27;20172;-47
2023/03/11 07:23:53;;;;;;;21.00;19.25;;;1.80;99.90;;;;;;5105948;27;20564;-47
2023/03/11 07:26:20;;;;;;;21.13;19.35;;;1.80;99.90;;;;;;5112327;27;20185;-51
2023/03/11 07:28:48;;;;;;;21.70;19.90;;;1.80;99.90;;;;;;5111405;27;20207;-46
2023/03/11 07:31:17;;;;;;;21.00;19.10;;;1.70;99.90;;;;;;5107934;27;20654;-49
2023/03/11 07:33:43;;;;;;;21.63;19.77;;;1.70;99.90;;;;;;5110522;27;20594;-46
2023/03/11 07:36:12;;;;;;;21.07;19.37;;;1.70;99.90;;;;;;5104468;27;20211;-48
2023/03/11 07:38:37;;;;;;;22.15;20.23;;;1.80;99.90;;;;;;5103813;27;20199;-46
2023/03/11 07:41:04;;;;;;;21.40;19.40;;;1.80;99.90;;;;;;5106211;27;20180;-46
2023/03/11 07:43:31;;;;;;;21.73;19.73;;;1.80;99.90;;;;;;5103782;27;21010;-49
2023/03/11 07:46:07;;;;;;;20.58;18.90;;;1.90;99.90;;;;;;5109987;27;20179;-49
2023/03/11 07:48:33;;;;;;;21.85;19.90;;;1.80;99.90;;;;;;5101521;27;20198;-45
2023/03/11 07:51:07;;;;;;;21.03;19.00;;;1.80;99.90;;;;;;5106175;27;20188;-44
2023/03/11 07:53:33;;;;;;;21.10;19.15;;;1.70;99.90;;;;;;5098949;27;20440;-45
2023/03/11 07:56:00;;;;;;;21.77;19.88;;;1.80;99.90;;;;;;5086914;28;20332;-46
2023/03/11 07:58:26;;;;;;;21.63;19.55;;;1.80;99.90;;;;;;5103941;27;20186;-49
2023/03/11 08:00:53;;;;;;;20.57;18.93;;;1.80;99.90;;;;;;5094286;27;20210;-46
2023/03/11 08:03:19;;;;;;;20.80;19.00;;;1.90;99.90;;;;;;5107876;27;20434;-49
2023/03/11 08:05:44;;;;;;;20.83;18.93;;;1.80;99.90;;;;;;5109670;27;20734;-46
2023/03/11 08:08:10;;;;;;;22.10;20.20;;;1.90;99.90;;;;;;5117871;27;20179;-46
2023/03/11 08:10:36;;;;;;;19.60;17.83;;;1.90;99.90;;;;;;5111051;27;20262;-49
2023/03/11 08:13:02;;;;;;;19.45;17.83;;;1.90;99.90;;;;;;5108068;27;20184;-47
2023/03/11 08:15:27;;;;;;;20.00;18.10;;;1.90;99.90;;;;;;5111396;27;20895;-43
2023/03/11 08:17:53;;;;;;;20.60;18.90;;;2.00;99.90;;;;;;5110522;27;20183;-45
2023/03/11 08:20:19;;;;;;;19.17;17.57;;;2.00;99.90;;;;;;5107766;27;20357;-44
2023/03/11 08:22:44;;;;;;;20.90;19.10;;;1.90;99.90;;;;;;5104406;27;20288;-47
2023/03/11 08:25:10;;;;;;;19.37;17.67;;;1.90;99.90;;;;;;5119843;27;20261;-45
2023/03/11 08:27:35;;;;;;;20.00;18.40;;;1.80;99.90;;;;;;5120579;27;20202;-46
2023/03/11 08:30:01;;;;;;;20.00;18.30;;;1.90;99.90;;;;;;5082818;28;20238;-47
2023/03/11 08:32:30;;;;;;;20.73;18.87;;;2.00;99.90;;;;;;5113209;27;20189;-47
2023/03/11 08:34:56;;;;;;;20.83;19.00;;;1.90;99.90;;;;;;5118634;27;20230;-44
2023/03/11 08:37:22;;;;;;;20.65;18.77;;;2.00;99.90;;;;;;5120239;27;20678;-44
2023/03/11 08:39:47;;;;;;;21.50;19.60;;;2.00;99.90;;;;;;5119881;27;20175;-50
2023/03/11 08:42:13;;;;;;;21.93;19.93;;;2.10;99.90;;;;;;5120032;27;20203;-45
2023/03/11 08:44:39;;;;;;;22.67;20.57;;;2.10;99.90;;;;;;5119889;27;20231;-47
2023/03/11 08:47:04;;;;;;;19.87;18.00;;;2.10;99.90;;;;;;5118991;28;20441;-43
2023/03/11 08:49:30;;;;;;;21.37;19.47;;;2.10;99.90;;;;;;5108440;28;20188;-46
2023/03/11 08:51:55;;;;;;;21.37;19.57;;;2.10;99.90;;;;;;5117954;28;20430;-44
2023/03/11 08:54:21;;;;;;;20.37;18.57;;;2.20;99.90;;;;;;5120530;28;20730;-44
2023/03/11 08:56:47;;;;;;;22.00;20.03;;;2.20;99.90;;;;;;5114643;28;20519;-45
2023/03/11 08:59:13;;;;;;;21.33;19.57;;;2.20;99.90;;;;;;5109731;28;20580;-45
2023/03/11 09:01:39;;;;;;;21.60;19.80;;;2.10;99.90;;;;;;5118081;28;20522;-47
2023/03/11 09:04:05;;;;;;;22.70;20.50;;;2.20;99.90;;;;;;5119494;28;20190;-45
2023/03/11 09:06:30;;;;;;;21.20;19.40;;;2.20;99.90;;;;;;5119885;28;20515;-48
2023/03/11 09:08:56;;;;;;;22.57;20.50;;;2.30;99.90;;;;;;5119974;28;20563;-45
2023/03/11 09:11:22;;;;;;;21.87;19.87;;;2.30;99.90;;;;;;5119974;28;20179;-44
2023/03/11 09:13:48;;;;;;;21.00;19.30;;;2.30;99.90;;;;;;5122636;27;20176;-44
2023/03/11 09:16:23;;;;;;;20.67;18.95;;;2.40;99.90;;;;;;5123170;27;20222;-48
2023/03/11 09:18:49;;;;;;;22.05;20.00;;;2.30;99.90;;;;;;5117971;27;21339;-44
2023/03/11 09:21:14;;;;;;;22.27;20.30;;;2.30;99.90;;;;;;5121770;27;20273;-48
2023/03/11 09:23:40;;;;;;;20.57;18.80;;;2.20;99.90;;;;;;5123589;27;20456;-44
2023/03/11 09:26:06;;;;;;;20.42;18.73;;;2.30;99.90;;;;;;5111345;27;20182;-44
2023/03/11 09:28:32;;;;;;;21.20;19.50;;;2.30;99.90;;;;;;5116743;27;20557;-44
2023/03/11 09:30:57;;;;;;;22.03;20.13;;;2.20;99.90;;;;;;5123836;27;20289;-45
2023/03/11 09:33:23;;;;;;;21.87;20.00;;;2.20;99.90;;;;;;5124088;27;20416;-46
2023/03/11 09:35:49;;;;;;;21.40;19.50;;;2.20;99.90;;;;;;5122416;27;20207;-44
2023/03/11 09:38:15;;;;;;;22.23;20.33;;;2.10;99.90;;;;;;5123251;27;20412;-45
2023/03/11 09:40:56;;;;;;;22.70;20.80;;;2.00;99.90;;;;;;5123328;27;20389;-47
2023/03/11 09:43:25;;;;;;;22.20;20.30;;;2.00;99.90;;;;;;5123106;27;20175;-49
2023/03/11 09:46:14;;;;;;;22.27;20.33;;;1.90;99.90;;;;;;5120100;27;20201;-44
2023/03/11 09:48:46;;;;;;;22.23;20.33;;;1.90;99.90;;;;;;5061347;27;20369;-44
2023/03/11 09:51:20;;;;;;;22.98;20.92;;;1.80;99.90;;;;;;5115068;27;20189;-48
2023/03/11 09:53:54;;;;;;;23.05;20.80;;;1.90;99.90;;;;;;5123058;27;20509;-45
2023/03/11 09:56:21;;;;;;;22.40;20.30;;;1.90;99.90;;;;;;5122814;27;20321;-42
2023/03/11 09:58:50;;;;;;;23.15;21.02;;;2.00;99.90;;;;;;5123015;27;20274;-48
2023/03/11 10:01:33;;;;;;;22.80;20.70;;;2.00;99.90;;;;;;5117659;27;20274;-46
2023/03/11 10:04:12;;;;;;;22.65;20.80;;;2.00;99.90;;;;;;5122664;27;20282;-45
2023/03/11 10:06:40;;;;;;;22.17;20.27;;;2.10;99.90;;;;;;5122606;27;20295;-48
2023/03/11 10:09:15;;;;;;;20.95;19.23;;;2.10;99.90;;;;;;5123322;27;20179;-44
2023/03/11 10:11:49;;;;;;;22.48;20.65;;;2.20;99.90;;;;;;5122976;27;20315;-44
2023/03/11 10:14:20;;;;;;;22.15;20.35;;;2.20;99.90;;;;;;5113247;27;20187;-46
2023/03/11 10:17:01;;;;;;;22.60;20.50;;;2.20;99.90;;;;;;5103855;27;20433;-45
2023/03/11 10:19:45;;;;;;;21.80;19.98;;;2.30;99.90;;;;;;5122630;27;20683;-46
2023/03/11 10:22:16;;;;;;;21.52;19.63;;;2.30;99.90;;;;;;5122146;27;20225;-42
2023/03/11 10:24:54;;;;;;;21.90;20.00;;;2.30;99.90;;;;;;5115376;27;20714;-47
2023/03/11 10:27:27;;;;;;;22.08;20.15;;;2.40;99.90;;;;;;5118431;27;20641;-47
2023/03/11 10:30:12;;;;;;;20.70;19.10;;;2.50;99.90;;;;;;5122256;27;20289;-46
2023/03/11 10:32:51;;;;;;;21.13;19.23;;;2.50;99.90;;;;;;5122185;27;20676;-44
2023/03/11 10:35:21;;;;;;;21.77;19.92;;;2.60;99.90;;;;;;5116920;27;20249;-45
2023/03/11 10:37:53;;;;;;;21.25;19.45;;;2.70;99.90;;;;;;5122379;27;20804;-49
2023/03/11 10:40:43;;;;;;;20.88;19.05;;;2.80;99.90;;;;;;5109079;27;20256;-45
2023/03/11 10:43:25;;;;;;;21.70;19.45;;;2.80;99.90;;;;;;5111888;27;20531;-46
2023/03/11 10:45:52;;;;;;;20.40;18.60;;;2.90;99.90;;;;;;5122136;27;20178;-48
2023/03/11 10:48:20;;;;;;;20.45;18.65;;;2.90;99.90;;;;;;5120842;27;20183;-47
2023/03/11 10:50:58;;;;;;;20.10;18.35;;;3.10;99.90;;;;;;5090184;27;20190;-44
2023/03/11 10:53:24;;;;;;;20.70;18.90;;;3.20;99.90;;;;;;5121882;27;20199;-46
2023/03/11 10:55:52;;;;;;;20.73;18.93;;;3.40;99.90;;;;;;5121664;27;20238;-49
2023/03/11 10:58:24;;;;;;;19.10;17.60;;;3.40;99.90;;;;;;5121833;27;20183;-48
2023/03/11 11:01:03;;;;;;;19.27;17.75;;;3.50;99.90;;;;;;5121965;27;20228;-46
2023/03/11 11:03:30;;;;;;;19.10;17.60;;;3.70;99.90;;;;;;5115960;27;20189;-44
2023/03/11 11:06:02;;;;;;;19.65;18.05;;;3.60;99.90;;;;;;5115501;27;20694;-44
2023/03/11 11:08:28;;;;;;;19.40;17.70;;;3.80;99.90;;;;;;5121597;27;20183;-42
2023/03/11 11:10:59;;;;;;;19.55;17.85;;;3.80;99.90;;;;;;5121877;27;20265;-46
2023/03/11 11:13:31;;;;;;;19.20;17.70;;;3.90;99.90;;;;;;5121322;27;20271;-45
2023/03/11 11:15:56;;;;;;;18.83;17.23;;;3.80;99.90;;;;;;5107895;27;20206;-45
2023/03/11 11:18:26;;;;;;;20.50;18.90;;;3.70;99.90;;;;;;5121929;27;20629;-47
2023/03/11 11:20:59;;;;;;;19.80;17.98;;;3.60;99.90;;;;;;5121270;27;20624;-44
2023/03/11 11:23:46;;;;;;;19.02;17.38;;;3.40;99.90;;;;;;5120972;27;20700;-45
2023/03/11 11:26:20;;;;;;;18.38;16.98;;;3.30;99.90;;;;;;5108223;27;20209;-44
2023/03/11 11:28:46;;;;;;;18.92;17.35;;;3.20;99.90;;;;;;5121460;27;20370;-42
2023/03/11 11:31:25;;;;;;;19.17;17.48;;;3.00;99.90;;;;;;5108439;27;20186;-42
2023/03/11 11:33:53;;;;;;;20.05;18.38;;;3.00;99.90;;;;;;5121153;27;20228;-45
2023/03/11 11:36:23;;;;;;;19.40;17.80;;;3.00;99.90;;;;;;5118133;27;20218;-46
2023/03/11 11:38:54;;;;;;;20.60;18.80;;;3.00;99.90;;;;;;5121061;27;20172;-45
2023/03/11 11:41:23;;;;;;;18.70;17.10;;;3.00;99.90;;;;;;5121199;27;20175;-43
2023/03/11 11:43:52;;;;;;;19.75;18.05;;;3.30;99.90;;;;;;5112839;27;20579;-43
2023/03/11 11:46:40;;;;;;;18.38;16.88;;;3.60;99.90;;;;;;5121083;27;20592;-47
2023/03/11 11:49:24;;;;;;;17.88;16.42;;;3.80;99.90;;;;;;5113108;27;20184;-46
2023/03/11 11:52:00;;;;;;;19.30;17.35;;;3.70;99.90;;;;;;5120474;27;20206;-44
2023/03/11 11:54:37;;;;;;;18.15;16.75;;;3.80;99.90;;;;;;5121121;27;20234;-45
2023/03/11 11:57:14;;;;;;;17.55;16.25;;;4.10;99.90;;;;;;5120827;27;20182;-48
2023/03/11 11:59:40;;;;;;;17.02;15.73;;;4.60;99.90;;;;;;5105917;27;20176;-45
2023/03/11 12:02:23;;;;;;;16.40;15.30;;;5.10;99.90;;;;;;5119428;27;20171;-48
2023/03/11 12:05:37;;;;;;;17.65;16.35;;;5.50;99.90;;;;;;5120489;27;20202;-44
2023/03/11 12:08:16;;;;;;;16.50;15.40;;;5.50;99.90;;;;;;5048942;28;20282;-45
2023/03/11 12:11:21;;;;;;;16.40;15.15;;;5.30;99.90;;;;;;5120479;27;20179;-43
2023/03/11 12:14:05;;;;;;;16.70;15.50;;;5.20;99.90;;;;;;5045927;27;20206;-45
2023/03/11 12:16:49;;;;;;;17.17;15.93;;;4.80;99.90;;;;;;5120394;27;20251;-47
2023/03/11 12:19:48;;;;;;;17.70;16.30;;;4.60;99.90;;;;;;5120404;27;20183;-44
2023/03/11 12:22:35;;;;;;;18.33;16.90;;;4.40;99.90;;;;;;5099052;27;20235;-44
2023/03/11 12:25:18;;;;;;;18.85;17.25;;;4.20;99.90;;;;;;5101948;27;20194;-47
2023/03/11 12:28:07;;;;;;;18.20;16.80;;;4.10;99.90;;;;;;5096772;27;20214;-46
2023/03/11 12:30:40;;;;;;;17.75;16.55;;;4.00;99.90;;;;;;5107532;27;20187;-44
2023/03/11 12:33:17;;;;;;;17.88;16.58;;;4.00;99.90;;;;;;5115478;27;20312;-43
2023/03/11 12:35:55;;;;;;;17.17;15.98;;;3.80;99.90;;;;;;5113483;27;20732;-46
2023/03/11 12:38:35;;;;;;;17.05;15.75;;;3.60;99.90;;;;;;5102430;27;20293;-46
2023/03/11 12:41:14;;;;;;;17.63;16.30;;;3.60;99.90;;;;;;5106470;27;20204;-43
2023/03/11 12:43:40;;;;;;;16.77;15.57;;;3.60;99.90;;;;;;5111371;27;20211;-44
2023/03/11 12:46:11;;;;;;;17.50;16.20;;;3.60;99.90;;;;;;5107099;28;20233;-43